LPMA/FNC METAR and TAF weather

Enter ICAO airport designator
Station Type Date Time Source
LPMA METAR 2019/05/27 09:00 UTC NOAA

LPMA 270900Z 36014KT 310V030 9999 FEW013 22/12 Q1019


Station Type Date Time Source
LPMA Decoded METAR 2019/05/27 09:00 UTC NOAA

Aeroporto Da Madeira, Portugal (LPMA) 32-41-52N 016-46-28W
May 27, 2019 - 05:00 AM EDT / 2019.05.27 0900 UTC
Wind: from the N (360 degrees) at 16 MPH (14 KT) (direction variable):0
Visibility: greater than 7 mile(s):0
Sky conditions: mostly clear
Temperature: 71 F (22 C)
Dew Point: 53 F (12 C)
Relative Humidity: 53%
Pressure (altimeter): 30.09 in. Hg (1019 hPa)
ob: LPMA 270900Z 36014KT 310V030 9999 FEW013 22/12 Q1019
cycle: 9

Station Type Date Time Source
LPMA TAF 2019/05/27 06:18 UTC NOAA

TAF LPMA 270500Z 2706/2806 36017KT 9999 SCT015
TEMPO 2706/2806 01020G30KT PROB40
TEMPO 2706/2806 01025G35KT

Example: see airport list